sensor_id;sensor_type;location;lat;lon;timestamp;P1;durP1;ratioP1;P2;durP2;ratioP2
47153;SDS011;32907;41.412;2.164;2023-02-15T00:01:14;15.00;;;11.98;;
47153;SDS011;32907;41.412;2.164;2023-02-15T00:03:43;13.05;;;11.75;;
47153;SDS011;32907;41.412;2.164;2023-02-15T00:06:11;13.55;;;11.65;;
47153;SDS011;32907;41.412;2.164;2023-02-15T00:08:39;14.50;;;12.07;;
47153;SDS011;32907;41.412;2.164;2023-02-15T00:11:10;13.18;;;11.15;;
47153;SDS011;32907;41.412;2.164;2023-02-15T00:13:40;13.93;;;11.52;;
47153;SDS011;32907;41.412;2.164;2023-02-15T00:16:11;13.00;;;11.60;;
47153;SDS011;32907;41.412;2.164;2023-02-15T00:18:47;13.07;;;11.20;;
47153;SDS011;32907;41.412;2.164;2023-02-15T00:21:20;13.35;;;10.93;;
47153;SDS011;32907;41.412;2.164;2023-02-15T00:23:48;13.48;;;11.43;;
47153;SDS011;32907;41.412;2.164;2023-02-15T00:26:16;12.73;;;11.07;;
47153;SDS011;32907;41.412;2.164;2023-02-15T00:28:48;13.30;;;10.73;;
47153;SDS011;32907;41.412;2.164;2023-02-15T00:31:19;14.68;;;12.20;;
47153;SDS011;32907;41.412;2.164;2023-02-15T00:33:48;13.25;;;11.85;;
47153;SDS011;32907;41.412;2.164;2023-02-15T00:36:17;12.07;;;10.88;;
47153;SDS011;32907;41.412;2.164;2023-02-15T00:38:49;12.48;;;11.18;;
47153;SDS011;32907;41.412;2.164;2023-02-15T00:41:17;11.07;;;9.98;;
47153;SDS011;32907;41.412;2.164;2023-02-15T00:43:45;12.02;;;9.90;;
47153;SDS011;32907;41.412;2.164;2023-02-15T00:46:13;12.27;;;9.52;;
47153;SDS011;32907;41.412;2.164;2023-02-15T00:48:41;10.88;;;9.48;;
47153;SDS011;32907;41.412;2.164;2023-02-15T00:51:10;11.60;;;10.20;;
47153;SDS011;32907;41.412;2.164;2023-02-15T00:53:38;11.57;;;9.57;;
47153;SDS011;32907;41.412;2.164;2023-02-15T00:56:07;12.75;;;10.70;;
47153;SDS011;32907;41.412;2.164;2023-02-15T00:58:36;12.68;;;10.15;;
47153;SDS011;32907;41.412;2.164;2023-02-15T01:01:15;12.98;;;9.82;;
47153;SDS011;32907;41.412;2.164;2023-02-15T01:03:45;12.00;;;9.68;;
47153;SDS011;32907;41.412;2.164;2023-02-15T01:06:15;13.30;;;10.10;;
47153;SDS011;32907;41.412;2.164;2023-02-15T01:08:44;10.68;;;9.57;;
47153;SDS011;32907;41.412;2.164;2023-02-15T01:11:16;12.45;;;10.75;;
47153;SDS011;32907;41.412;2.164;2023-02-15T01:16:21;12.00;;;10.13;;
47153;SDS011;32907;41.412;2.164;2023-02-15T01:18:53;10.93;;;9.82;;
47153;SDS011;32907;41.412;2.164;2023-02-15T01:21:26;11.52;;;10.32;;
47153;SDS011;32907;41.412;2.164;2023-02-15T01:23:54;11.90;;;9.18;;
47153;SDS011;32907;41.412;2.164;2023-02-15T01:26:25;11.88;;;9.52;;
47153;SDS011;32907;41.412;2.164;2023-02-15T01:28:52;11.48;;;9.65;;
47153;SDS011;32907;41.412;2.164;2023-02-15T01:31:20;12.00;;;10.25;;
47153;SDS011;32907;41.412;2.164;2023-02-15T01:33:49;13.18;;;11.73;;
47153;SDS011;32907;41.412;2.164;2023-02-15T01:36:16;13.20;;;11.77;;
47153;SDS011;32907;41.412;2.164;2023-02-15T01:38:45;12.82;;;11.38;;
47153;SDS011;32907;41.412;2.164;2023-02-15T01:41:13;12.85;;;11.27;;
47153;SDS011;32907;41.412;2.164;2023-02-15T01:43:49;11.50;;;10.30;;
47153;SDS011;32907;41.412;2.164;2023-02-15T01:46:20;11.80;;;10.45;;
47153;SDS011;32907;41.412;2.164;2023-02-15T01:48:54;11.80;;;10.45;;
47153;SDS011;32907;41.412;2.164;2023-02-15T01:51:27;10.93;;;9.65;;
47153;SDS011;32907;41.412;2.164;2023-02-15T01:56:45;12.10;;;10.90;;
47153;SDS011;32907;41.412;2.164;2023-02-15T01:59:16;12.88;;;10.73;;
47153;SDS011;32907;41.412;2.164;2023-02-15T02:01:49;10.15;;;9.07;;
47153;SDS011;32907;41.412;2.164;2023-02-15T02:06:58;10.40;;;9.40;;
47153;SDS011;32907;41.412;2.164;2023-02-15T02:09:27;9.90;;;8.90;;
47153;SDS011;32907;41.412;2.164;2023-02-15T02:11:56;10.25;;;8.73;;
47153;SDS011;32907;41.412;2.164;2023-02-15T02:14:24;9.23;;;8.23;;
47153;SDS011;32907;41.412;2.164;2023-02-15T02:19:51;10.02;;;8.68;;
47153;SDS011;32907;41.412;2.164;2023-02-15T02:31:11;11.07;;;7.65;;
47153;SDS011;32907;41.412;2.164;2023-02-15T02:44:54;10.18;;;7.78;;
47153;SDS011;32907;41.412;2.164;2023-02-15T02:47:31;8.75;;;7.85;;
47153;SDS011;32907;41.412;2.164;2023-02-15T02:50:22;9.02;;;8.07;;
47153;SDS011;32907;41.412;2.164;2023-02-15T02:52:54;10.40;;;8.48;;
47153;SDS011;32907;41.412;2.164;2023-02-15T03:03:26;8.60;;;7.68;;
47153;SDS011;32907;41.412;2.164;2023-02-15T03:05:59;8.18;;;7.38;;
47153;SDS011;32907;41.412;2.164;2023-02-15T03:08:38;8.20;;;7.10;;
47153;SDS011;32907;41.412;2.164;2023-02-15T03:11:09;8.45;;;7.63;;
47153;SDS011;32907;41.412;2.164;2023-02-15T03:13:40;9.15;;;7.50;;
47153;SDS011;32907;41.412;2.164;2023-02-15T03:16:10;8.80;;;6.75;;
47153;SDS011;32907;41.412;2.164;2023-02-15T03:19:05;7.45;;;6.55;;
47153;SDS011;32907;41.412;2.164;2023-02-15T03:21:47;8.05;;;7.35;;
47153;SDS011;32907;41.412;2.164;2023-02-15T03:24:27;9.27;;;6.97;;
47153;SDS011;32907;41.412;2.164;2023-02-15T03:26:59;9.57;;;7.88;;
47153;SDS011;32907;41.412;2.164;2023-02-15T03:29:31;8.73;;;6.80;;
47153;SDS011;32907;41.412;2.164;2023-02-15T03:32:02;7.75;;;6.57;;
47153;SDS011;32907;41.412;2.164;2023-02-15T03:34:35;7.10;;;6.32;;
47153;SDS011;32907;41.412;2.164;2023-02-15T03:43:08;8.43;;;7.10;;
47153;SDS011;32907;41.412;2.164;2023-02-15T03:45:51;7.00;;;5.95;;
47153;SDS011;32907;41.412;2.164;2023-02-15T03:48:27;7.47;;;6.68;;
47153;SDS011;32907;41.412;2.164;2023-02-15T03:51:03;8.15;;;7.15;;
47153;SDS011;32907;41.412;2.164;2023-02-15T03:53:55;7.63;;;6.68;;
47153;SDS011;32907;41.412;2.164;2023-02-15T03:56:24;7.00;;;6.25;;
47153;SDS011;32907;41.412;2.164;2023-02-15T03:58:52;7.53;;;6.82;;
47153;SDS011;32907;41.412;2.164;2023-02-15T04:01:48;7.82;;;6.55;;
47153;SDS011;32907;41.412;2.164;2023-02-15T04:04:35;8.95;;;6.82;;
47153;SDS011;32907;41.412;2.164;2023-02-15T04:07:07;7.55;;;6.78;;
47153;SDS011;32907;41.412;2.164;2023-02-15T04:09:36;6.57;;;5.97;;
47153;SDS011;32907;41.412;2.164;2023-02-15T04:12:22;7.03;;;6.35;;
47153;SDS011;32907;41.412;2.164;2023-02-15T04:14:50;6.43;;;5.82;;
47153;SDS011;32907;41.412;2.164;2023-02-15T04:17:37;6.68;;;5.97;;
47153;SDS011;32907;41.412;2.164;2023-02-15T04:20:06;8.32;;;6.15;;
47153;SDS011;32907;41.412;2.164;2023-02-15T04:22:53;7.10;;;6.40;;
47153;SDS011;32907;41.412;2.164;2023-02-15T04:25:39;8.93;;;6.70;;
47153;SDS011;32907;41.412;2.164;2023-02-15T04:28:08;6.78;;;6.00;;
47153;SDS011;32907;41.412;2.164;2023-02-15T04:30:37;8.43;;;7.13;;
47153;SDS011;32907;41.412;2.164;2023-02-15T04:33:06;8.07;;;6.90;;
47153;SDS011;32907;41.412;2.164;2023-02-15T04:35:34;8.55;;;7.70;;
47153;SDS011;32907;41.412;2.164;2023-02-15T04:38:02;8.30;;;7.50;;
47153;SDS011;32907;41.412;2.164;2023-02-15T04:40:30;10.05;;;9.00;;
47153;SDS011;32907;41.412;2.164;2023-02-15T04:42:58;10.38;;;9.23;;
47153;SDS011;32907;41.412;2.164;2023-02-15T04:45:28;11.10;;;9.90;;
47153;SDS011;32907;41.412;2.164;2023-02-15T04:47:56;11.10;;;9.68;;
47153;SDS011;32907;41.412;2.164;2023-02-15T04:50:24;11.52;;;10.32;;
47153;SDS011;32907;41.412;2.164;2023-02-15T04:52:52;10.50;;;9.18;;
47153;SDS011;32907;41.412;2.164;2023-02-15T04:55:20;10.57;;;9.38;;
47153;SDS011;32907;41.412;2.164;2023-02-15T04:57:48;10.68;;;9.48;;
47153;SDS011;32907;41.412;2.164;2023-02-15T05:00:16;11.13;;;9.98;;
47153;SDS011;32907;41.412;2.164;2023-02-15T05:02:47;12.93;;;10.55;;
47153;SDS011;32907;41.412;2.164;2023-02-15T05:05:15;12.13;;;9.43;;
47153;SDS011;32907;41.412;2.164;2023-02-15T05:07:44;11.15;;;9.68;;
47153;SDS011;32907;41.412;2.164;2023-02-15T05:10:12;11.45;;;9.80;;
47153;SDS011;32907;41.412;2.164;2023-02-15T05:12:40;11.00;;;9.88;;
47153;SDS011;32907;41.412;2.164;2023-02-15T05:15:08;10.38;;;9.18;;
47153;SDS011;32907;41.412;2.164;2023-02-15T05:17:44;11.25;;;9.32;;
47153;SDS011;32907;41.412;2.164;2023-02-15T05:20:12;12.57;;;9.60;;
47153;SDS011;32907;41.412;2.164;2023-02-15T05:22:40;10.73;;;8.70;;
47153;SDS011;32907;41.412;2.164;2023-02-15T05:25:09;11.18;;;9.98;;
47153;SDS011;32907;41.412;2.164;2023-02-15T05:27:56;11.60;;;9.50;;
47153;SDS011;32907;41.412;2.164;2023-02-15T05:30:42;10.35;;;8.82;;
47153;SDS011;32907;41.412;2.164;2023-02-15T05:33:10;10.80;;;9.70;;
47153;SDS011;32907;41.412;2.164;2023-02-15T05:35:38;10.18;;;9.18;;
47153;SDS011;32907;41.412;2.164;2023-02-15T05:38:06;10.93;;;9.80;;
47153;SDS011;32907;41.412;2.164;2023-02-15T05:40:34;10.50;;;9.30;;
47153;SDS011;32907;41.412;2.164;2023-02-15T05:43:03;11.45;;;10.25;;
47153;SDS011;32907;41.412;2.164;2023-02-15T05:45:30;10.80;;;9.40;;
47153;SDS011;32907;41.412;2.164;2023-02-15T05:47:58;12.50;;;9.65;;
47153;SDS011;32907;41.412;2.164;2023-02-15T05:50:26;12.27;;;9.63;;
47153;SDS011;32907;41.412;2.164;2023-02-15T05:52:54;10.35;;;9.23;;
47153;SDS011;32907;41.412;2.164;2023-02-15T05:55:22;11.60;;;9.35;;
47153;SDS011;32907;41.412;2.164;2023-02-15T05:57:50;20.98;;;13.13;;
47153;SDS011;32907;41.412;2.164;2023-02-15T06:00:20;25.08;;;13.48;;
47153;SDS011;32907;41.412;2.164;2023-02-15T06:02:48;23.33;;;13.38;;
47153;SDS011;32907;41.412;2.164;2023-02-15T06:05:16;18.88;;;12.60;;
47153;SDS011;32907;41.412;2.164;2023-02-15T06:07:47;15.73;;;10.35;;
47153;SDS011;32907;41.412;2.164;2023-02-15T06:10:16;12.80;;;9.30;;
47153;SDS011;32907;41.412;2.164;2023-02-15T06:12:44;10.95;;;8.85;;
47153;SDS011;32907;41.412;2.164;2023-02-15T06:15:13;11.68;;;9.07;;
47153;SDS011;32907;41.412;2.164;2023-02-15T06:17:42;11.77;;;9.55;;
47153;SDS011;32907;41.412;2.164;2023-02-15T06:20:11;20.63;;;11.85;;
47153;SDS011;32907;41.412;2.164;2023-02-15T06:22:39;25.25;;;12.93;;
47153;SDS011;32907;41.412;2.164;2023-02-15T06:25:07;34.70;;;16.23;;
47153;SDS011;32907;41.412;2.164;2023-02-15T06:27:37;22.90;;;13.85;;
47153;SDS011;32907;41.412;2.164;2023-02-15T06:30:09;28.48;;;15.32;;
47153;SDS011;32907;41.412;2.164;2023-02-15T06:32:38;21.65;;;14.82;;
47153;SDS011;32907;41.412;2.164;2023-02-15T06:35:07;21.95;;;14.95;;
47153;SDS011;32907;41.412;2.164;2023-02-15T06:37:38;17.38;;;13.80;;
47153;SDS011;32907;41.412;2.164;2023-02-15T06:40:06;22.05;;;15.02;;
47153;SDS011;32907;41.412;2.164;2023-02-15T06:42:35;21.48;;;13.25;;
47153;SDS011;32907;41.412;2.164;2023-02-15T06:45:05;17.30;;;12.60;;
47153;SDS011;32907;41.412;2.164;2023-02-15T06:47:34;18.02;;;13.05;;
47153;SDS011;32907;41.412;2.164;2023-02-15T06:50:03;15.82;;;12.43;;
47153;SDS011;32907;41.412;2.164;2023-02-15T06:52:33;15.90;;;12.65;;
47153;SDS011;32907;41.412;2.164;2023-02-15T06:55:01;15.90;;;12.32;;
47153;SDS011;32907;41.412;2.164;2023-02-15T06:57:29;18.55;;;12.70;;
47153;SDS011;32907;41.412;2.164;2023-02-15T06:59:58;16.08;;;11.95;;
47153;SDS011;32907;41.412;2.164;2023-02-15T07:02:27;14.00;;;11.90;;
47153;SDS011;32907;41.412;2.164;2023-02-15T07:04:56;13.90;;;11.85;;
47153;SDS011;32907;41.412;2.164;2023-02-15T07:07:27;15.68;;;11.77;;
47153;SDS011;32907;41.412;2.164;2023-02-15T07:09:55;14.25;;;11.00;;
47153;SDS011;32907;41.412;2.164;2023-02-15T07:12:24;12.75;;;11.32;;
47153;SDS011;32907;41.412;2.164;2023-02-15T07:15:13;18.23;;;12.65;;
47153;SDS011;32907;41.412;2.164;2023-02-15T07:17:43;16.33;;;13.18;;
47153;SDS011;32907;41.412;2.164;2023-02-15T07:20:13;15.10;;;11.95;;
47153;SDS011;32907;41.412;2.164;2023-02-15T07:22:46;15.68;;;12.73;;
47153;SDS011;32907;41.412;2.164;2023-02-15T07:25:15;14.73;;;12.98;;
47153;SDS011;32907;41.412;2.164;2023-02-15T07:27:43;18.00;;;13.82;;
47153;SDS011;32907;41.412;2.164;2023-02-15T07:30:13;16.60;;;14.60;;
47153;SDS011;32907;41.412;2.164;2023-02-15T07:32:42;19.15;;;14.38;;
47153;SDS011;32907;41.412;2.164;2023-02-15T07:35:32;16.60;;;13.73;;
47153;SDS011;32907;41.412;2.164;2023-02-15T07:38:00;19.20;;;14.45;;
47153;SDS011;32907;41.412;2.164;2023-02-15T07:40:31;20.52;;;14.43;;
47153;SDS011;32907;41.412;2.164;2023-02-15T07:42:59;19.55;;;13.95;;
47153;SDS011;32907;41.412;2.164;2023-02-15T07:45:27;16.35;;;13.32;;
47153;SDS011;32907;41.412;2.164;2023-02-15T07:47:55;18.67;;;13.00;;
47153;SDS011;32907;41.412;2.164;2023-02-15T07:50:23;17.48;;;13.25;;
47153;SDS011;32907;41.412;2.164;2023-02-15T07:52:51;17.42;;;13.75;;
47153;SDS011;32907;41.412;2.164;2023-02-15T07:55:20;18.00;;;13.93;;
47153;SDS011;32907;41.412;2.164;2023-02-15T07:57:49;19.15;;;13.65;;
47153;SDS011;32907;41.412;2.164;2023-02-15T08:00:19;18.55;;;13.40;;
47153;SDS011;32907;41.412;2.164;2023-02-15T08:02:53;18.98;;;14.52;;
47153;SDS011;32907;41.412;2.164;2023-02-15T08:05:42;24.17;;;14.52;;
47153;SDS011;32907;41.412;2.164;2023-02-15T08:08:11;21.10;;;15.38;;
47153;SDS011;32907;41.412;2.164;2023-02-15T08:11:02;22.92;;;14.45;;
47153;SDS011;32907;41.412;2.164;2023-02-15T08:21:44;16.73;;;12.93;;
47153;SDS011;32907;41.412;2.164;2023-02-15T08:24:15;17.38;;;12.98;;
47153;SDS011;32907;41.412;2.164;2023-02-15T08:26:45;20.27;;;12.00;;
47153;SDS011;32907;41.412;2.164;2023-02-15T08:29:15;16.20;;;12.60;;
47153;SDS011;32907;41.412;2.164;2023-02-15T08:31:45;14.18;;;11.45;;
47153;SDS011;32907;41.412;2.164;2023-02-15T08:34:15;15.77;;;11.75;;
47153;SDS011;32907;41.412;2.164;2023-02-15T08:36:45;18.65;;;12.77;;
47153;SDS011;32907;41.412;2.164;2023-02-15T08:39:14;17.40;;;11.85;;
47153;SDS011;32907;41.412;2.164;2023-02-15T08:41:43;21.08;;;12.25;;
47153;SDS011;32907;41.412;2.164;2023-02-15T08:44:15;15.68;;;10.75;;
47153;SDS011;32907;41.412;2.164;2023-02-15T08:46:44;20.10;;;10.10;;
47153;SDS011;32907;41.412;2.164;2023-02-15T08:49:18;16.83;;;9.98;;
47153;SDS011;32907;41.412;2.164;2023-02-15T08:51:47;17.77;;;9.68;;
47153;SDS011;32907;41.412;2.164;2023-02-15T08:54:18;14.90;;;9.63;;
47153;SDS011;32907;41.412;2.164;2023-02-15T08:56:49;12.27;;;9.30;;
47153;SDS011;32907;41.412;2.164;2023-02-15T08:59:18;13.75;;;8.55;;
47153;SDS011;32907;41.412;2.164;2023-02-15T09:01:50;12.05;;;8.70;;
47153;SDS011;32907;41.412;2.164;2023-02-15T09:04:19;11.45;;;8.23;;
47153;SDS011;32907;41.412;2.164;2023-02-15T09:06:49;9.85;;;8.00;;
47153;SDS011;32907;41.412;2.164;2023-02-15T09:09:18;12.40;;;7.30;;
47153;SDS011;32907;41.412;2.164;2023-02-15T09:11:48;11.48;;;7.10;;
47153;SDS011;32907;41.412;2.164;2023-02-15T09:14:25;8.63;;;6.85;;
47153;SDS011;32907;41.412;2.164;2023-02-15T09:16:55;9.18;;;7.10;;
47153;SDS011;32907;41.412;2.164;2023-02-15T09:19:24;10.32;;;7.13;;
47153;SDS011;32907;41.412;2.164;2023-02-15T09:21:52;10.63;;;7.05;;
47153;SDS011;32907;41.412;2.164;2023-02-15T09:24:22;8.05;;;6.63;;
47153;SDS011;32907;41.412;2.164;2023-02-15T09:26:50;8.25;;;6.60;;
47153;SDS011;32907;41.412;2.164;2023-02-15T09:29:18;10.52;;;7.60;;
47153;SDS011;32907;41.412;2.164;2023-02-15T09:31:48;10.13;;;6.70;;
47153;SDS011;32907;41.412;2.164;2023-02-15T09:34:20;5.95;;;5.18;;
47153;SDS011;32907;41.412;2.164;2023-02-15T09:36:50;11.68;;;5.90;;
47153;SDS011;32907;41.412;2.164;2023-02-15T09:42:05;7.55;;;5.63;;
47153;SDS011;32907;41.412;2.164;2023-02-15T09:50:41;8.32;;;6.07;;
47153;SDS011;32907;41.412;2.164;2023-02-15T09:56:14;8.30;;;5.20;;
47153;SDS011;32907;41.412;2.164;2023-02-15T09:59:00;8.43;;;5.78;;
47153;SDS011;32907;41.412;2.164;2023-02-15T10:10:41;7.43;;;6.15;;
47153;SDS011;32907;41.412;2.164;2023-02-15T10:13:59;10.15;;;6.93;;
47153;SDS011;32907;41.412;2.164;2023-02-15T10:19:26;7.45;;;5.68;;
47153;SDS011;32907;41.412;2.164;2023-02-15T10:25:04;8.85;;;6.30;;
47153;SDS011;32907;41.412;2.164;2023-02-15T10:28:00;8.75;;;6.78;;
47153;SDS011;32907;41.412;2.164;2023-02-15T10:30:48;8.68;;;7.28;;
47153;SDS011;32907;41.412;2.164;2023-02-15T10:41:46;8.65;;;7.18;;
47153;SDS011;32907;41.412;2.164;2023-02-15T10:55:23;9.65;;;7.63;;
47153;SDS011;32907;41.412;2.164;2023-02-15T11:06:53;10.25;;;8.32;;
47153;SDS011;32907;41.412;2.164;2023-02-15T11:09:29;13.65;;;8.98;;
47153;SDS011;32907;41.412;2.164;2023-02-15T11:12:24;10.35;;;8.68;;
47153;SDS011;32907;41.412;2.164;2023-02-15T11:15:01;11.50;;;8.60;;
47153;SDS011;32907;41.412;2.164;2023-02-15T11:17:43;10.05;;;7.90;;
47153;SDS011;32907;41.412;2.164;2023-02-15T11:20:24;8.75;;;7.85;;
47153;SDS011;32907;41.412;2.164;2023-02-15T11:22:58;9.50;;;8.20;;
47153;SDS011;32907;41.412;2.164;2023-02-15T11:25:30;13.35;;;8.70;;
47153;SDS011;32907;41.412;2.164;2023-02-15T11:28:03;8.75;;;7.72;;
47153;SDS011;32907;41.412;2.164;2023-02-15T11:30:39;10.25;;;7.82;;
47153;SDS011;32907;41.412;2.164;2023-02-15T11:33:15;9.10;;;7.80;;
47153;SDS011;32907;41.412;2.164;2023-02-15T11:35:51;9.07;;;7.30;;
47153;SDS011;32907;41.412;2.164;2023-02-15T11:38:27;10.70;;;7.95;;
47153;SDS011;32907;41.412;2.164;2023-02-15T11:41:03;8.40;;;7.47;;
47153;SDS011;32907;41.412;2.164;2023-02-15T11:43:43;10.55;;;8.38;;
47153;SDS011;32907;41.412;2.164;2023-02-15T11:46:17;9.85;;;7.63;;
47153;SDS011;32907;41.412;2.164;2023-02-15T11:48:48;11.57;;;8.63;;
47153;SDS011;32907;41.412;2.164;2023-02-15T11:51:17;9.52;;;7.90;;
47153;SDS011;32907;41.412;2.164;2023-02-15T11:53:50;12.15;;;8.48;;
47153;SDS011;32907;41.412;2.164;2023-02-15T11:56:22;7.57;;;6.68;;
47153;SDS011;32907;41.412;2.164;2023-02-15T11:58:57;8.88;;;7.93;;
47153;SDS011;32907;41.412;2.164;2023-02-15T12:01:34;10.52;;;8.80;;
47153;SDS011;32907;41.412;2.164;2023-02-15T12:04:26;11.88;;;8.32;;
47153;SDS011;32907;41.412;2.164;2023-02-15T12:07:22;9.98;;;7.88;;
47153;SDS011;32907;41.412;2.164;2023-02-15T12:12:41;10.27;;;8.48;;
47153;SDS011;32907;41.412;2.164;2023-02-15T12:15:10;10.63;;;9.52;;
47153;SDS011;32907;41.412;2.164;2023-02-15T12:17:51;8.95;;;7.95;;
47153;SDS011;32907;41.412;2.164;2023-02-15T12:20:28;11.30;;;8.77;;
47153;SDS011;32907;41.412;2.164;2023-02-15T12:23:14;12.35;;;8.60;;
47153;SDS011;32907;41.412;2.164;2023-02-15T12:25:51;13.00;;;9.65;;
47153;SDS011;32907;41.412;2.164;2023-02-15T12:28:40;13.20;;;10.00;;
47153;SDS011;32907;41.412;2.164;2023-02-15T12:31:20;13.43;;;11.73;;
47153;SDS011;32907;41.412;2.164;2023-02-15T12:34:13;15.32;;;11.70;;
47153;SDS011;32907;41.412;2.164;2023-02-15T12:36:51;14.98;;;13.38;;
47153;SDS011;32907;41.412;2.164;2023-02-15T12:39:27;15.40;;;12.15;;
47153;SDS011;32907;41.412;2.164;2023-02-15T12:42:04;12.20;;;10.85;;
47153;SDS011;32907;41.412;2.164;2023-02-15T12:44:52;12.85;;;9.95;;
47153;SDS011;32907;41.412;2.164;2023-02-15T12:47:25;12.15;;;8.02;;
47153;SDS011;32907;41.412;2.164;2023-02-15T12:53:08;18.00;;;13.02;;
47153;SDS011;32907;41.412;2.164;2023-02-15T12:55:49;23.95;;;16.65;;
47153;SDS011;32907;41.412;2.164;2023-02-15T12:58:26;21.52;;;14.30;;
47153;SDS011;32907;41.412;2.164;2023-02-15T13:01:17;27.60;;;18.25;;
47153;SDS011;32907;41.412;2.164;2023-02-15T13:06:18;41.05;;;28.27;;
47153;SDS011;32907;41.412;2.164;2023-02-15T13:08:47;39.33;;;27.42;;
47153;SDS011;32907;41.412;2.164;2023-02-15T13:11:24;36.67;;;23.08;;
47153;SDS011;32907;41.412;2.164;2023-02-15T13:17:03;22.85;;;14.48;;
47153;SDS011;32907;41.412;2.164;2023-02-15T13:22:21;14.52;;;9.02;;
47153;SDS011;32907;41.412;2.164;2023-02-15T13:25:04;10.55;;;7.25;;
47153;SDS011;32907;41.412;2.164;2023-02-15T13:27:40;11.80;;;7.00;;
47153;SDS011;32907;41.412;2.164;2023-02-15T13:32:54;9.18;;;6.28;;
47153;SDS011;32907;41.412;2.164;2023-02-15T13:35:34;8.43;;;6.25;;
47153;SDS011;32907;41.412;2.164;2023-02-15T13:41:15;9.48;;;5.85;;
47153;SDS011;32907;41.412;2.164;2023-02-15T13:43:58;10.55;;;5.97;;
47153;SDS011;32907;41.412;2.164;2023-02-15T13:49:39;11.52;;;6.53;;
47153;SDS011;32907;41.412;2.164;2023-02-15T13:52:32;10.13;;;5.65;;
47153;SDS011;32907;41.412;2.164;2023-02-15T13:55:23;8.55;;;5.80;;
47153;SDS011;32907;41.412;2.164;2023-02-15T13:58:05;10.48;;;7.53;;
47153;SDS011;32907;41.412;2.164;2023-02-15T14:06:30;12.50;;;6.40;;
47153;SDS011;32907;41.412;2.164;2023-02-15T14:09:35;11.25;;;6.60;;
47153;SDS011;32907;41.412;2.164;2023-02-15T14:13:16;9.80;;;5.97;;
47153;SDS011;32907;41.412;2.164;2023-02-15T14:15:29;7.63;;;5.00;;
47153;SDS011;32907;41.412;2.164;2023-02-15T14:21:10;11.43;;;6.03;;
47153;SDS011;32907;41.412;2.164;2023-02-15T14:31:47;9.25;;;5.85;;
47153;SDS011;32907;41.412;2.164;2023-02-15T14:34:23;9.20;;;4.78;;
47153;SDS011;32907;41.412;2.164;2023-02-15T14:37:08;8.50;;;4.57;;
47153;SDS011;32907;41.412;2.164;2023-02-15T14:40:00;8.10;;;4.30;;
47153;SDS011;32907;41.412;2.164;2023-02-15T14:43:15;10.55;;;4.47;;
47153;SDS011;32907;41.412;2.164;2023-02-15T14:45:55;6.07;;;4.05;;
47153;SDS011;32907;41.412;2.164;2023-02-15T14:48:37;7.40;;;4.68;;
47153;SDS011;32907;41.412;2.164;2023-02-15T14:51:38;6.82;;;3.75;;
47153;SDS011;32907;41.412;2.164;2023-02-15T14:56:46;6.45;;;4.50;;
47153;SDS011;32907;41.412;2.164;2023-02-15T15:02:40;7.40;;;4.03;;
47153;SDS011;32907;41.412;2.164;2023-02-15T15:08:03;9.97;;;5.83;;
47153;SDS011;32907;41.412;2.164;2023-02-15T15:10:45;7.05;;;4.78;;
47153;SDS011;32907;41.412;2.164;2023-02-15T15:18:53;13.85;;;8.23;;
47153;SDS011;32907;41.412;2.164;2023-02-15T15:30:46;7.88;;;4.82;;
47153;SDS011;32907;41.412;2.164;2023-02-15T15:44:42;6.07;;;3.92;;
47153;SDS011;32907;41.412;2.164;2023-02-15T15:49:59;5.05;;;3.70;;
47153;SDS011;32907;41.412;2.164;2023-02-15T15:52:42;5.68;;;3.67;;
47153;SDS011;32907;41.412;2.164;2023-02-15T15:55:20;7.60;;;4.32;;
47153;SDS011;32907;41.412;2.164;2023-02-15T15:57:51;5.72;;;4.05;;
47153;SDS011;32907;41.412;2.164;2023-02-15T16:00:30;6.05;;;3.72;;
47153;SDS011;32907;41.412;2.164;2023-02-15T16:03:03;6.25;;;4.00;;
47153;SDS011;32907;41.412;2.164;2023-02-15T16:05:38;5.25;;;4.15;;
47153;SDS011;32907;41.412;2.164;2023-02-15T16:08:08;6.80;;;3.78;;
47153;SDS011;32907;41.412;2.164;2023-02-15T16:10:37;4.88;;;3.75;;
47153;SDS011;32907;41.412;2.164;2023-02-15T16:13:06;8.73;;;4.70;;
47153;SDS011;32907;41.412;2.164;2023-02-15T16:15:36;6.53;;;4.75;;
47153;SDS011;32907;41.412;2.164;2023-02-15T16:18:23;7.68;;;5.63;;
47153;SDS011;32907;41.412;2.164;2023-02-15T16:23:29;7.78;;;4.95;;
47153;SDS011;32907;41.412;2.164;2023-02-15T16:26:09;10.40;;;5.57;;
47153;SDS011;32907;41.412;2.164;2023-02-15T16:28:52;10.07;;;5.30;;
47153;SDS011;32907;41.412;2.164;2023-02-15T16:31:22;8.95;;;5.38;;
47153;SDS011;32907;41.412;2.164;2023-02-15T16:33:54;9.25;;;5.30;;
47153;SDS011;32907;41.412;2.164;2023-02-15T16:36:24;12.25;;;5.60;;
47153;SDS011;32907;41.412;2.164;2023-02-15T16:41:27;7.97;;;4.53;;
47153;SDS011;32907;41.412;2.164;2023-02-15T16:43:58;8.00;;;4.70;;
47153;SDS011;32907;41.412;2.164;2023-02-15T16:46:31;6.43;;;4.78;;
47153;SDS011;32907;41.412;2.164;2023-02-15T16:49:01;7.38;;;4.70;;
47153;SDS011;32907;41.412;2.164;2023-02-15T16:51:33;5.80;;;3.83;;
47153;SDS011;32907;41.412;2.164;2023-02-15T16:54:06;7.20;;;4.05;;
47153;SDS011;32907;41.412;2.164;2023-02-15T16:56:42;7.22;;;4.22;;
47153;SDS011;32907;41.412;2.164;2023-02-15T16:59:47;9.50;;;4.97;;
47153;SDS011;32907;41.412;2.164;2023-02-15T17:02:14;5.88;;;3.67;;
47153;SDS011;32907;41.412;2.164;2023-02-15T17:08:44;7.85;;;3.65;;
47153;SDS011;32907;41.412;2.164;2023-02-15T17:10:45;7.07;;;3.50;;
47153;SDS011;32907;41.412;2.164;2023-02-15T17:13:32;5.78;;;3.55;;
47153;SDS011;32907;41.412;2.164;2023-02-15T17:21:10;6.63;;;3.55;;
47153;SDS011;32907;41.412;2.164;2023-02-15T17:23:41;4.32;;;3.58;;
47153;SDS011;32907;41.412;2.164;2023-02-15T17:26:15;5.05;;;4.03;;
47153;SDS011;32907;41.412;2.164;2023-02-15T17:28:50;4.90;;;4.30;;
47153;SDS011;32907;41.412;2.164;2023-02-15T17:31:21;5.85;;;4.60;;
47153;SDS011;32907;41.412;2.164;2023-02-15T17:33:54;5.30;;;4.00;;
47153;SDS011;32907;41.412;2.164;2023-02-15T17:36:27;4.75;;;4.13;;
47153;SDS011;32907;41.412;2.164;2023-02-15T17:41:26;4.80;;;4.30;;
47153;SDS011;32907;41.412;2.164;2023-02-15T17:43:57;5.90;;;4.88;;
47153;SDS011;32907;41.412;2.164;2023-02-15T17:46:25;6.53;;;4.97;;
47153;SDS011;32907;41.412;2.164;2023-02-15T17:48:59;6.63;;;5.53;;
47153;SDS011;32907;41.412;2.164;2023-02-15T17:51:26;5.75;;;5.00;;
47153;SDS011;32907;41.412;2.164;2023-02-15T17:53:55;8.48;;;5.70;;
47153;SDS011;32907;41.412;2.164;2023-02-15T17:56:41;7.88;;;4.90;;
47153;SDS011;32907;41.412;2.164;2023-02-15T17:59:10;7.10;;;4.95;;
47153;SDS011;32907;41.412;2.164;2023-02-15T18:01:45;5.53;;;4.93;;
47153;SDS011;32907;41.412;2.164;2023-02-15T18:04:33;9.43;;;5.43;;
47153;SDS011;32907;41.412;2.164;2023-02-15T18:07:22;7.25;;;5.65;;
47153;SDS011;32907;41.412;2.164;2023-02-15T18:10:13;6.63;;;5.47;;
47153;SDS011;32907;41.412;2.164;2023-02-15T18:13:01;7.55;;;5.45;;
47153;SDS011;32907;41.412;2.164;2023-02-15T18:15:29;6.97;;;5.45;;
47153;SDS011;32907;41.412;2.164;2023-02-15T18:17:57;6.15;;;5.20;;
47153;SDS011;32907;41.412;2.164;2023-02-15T18:20:32;6.57;;;5.07;;
47153;SDS011;32907;41.412;2.164;2023-02-15T18:23:03;10.70;;;6.38;;
47153;SDS011;32907;41.412;2.164;2023-02-15T18:25:32;8.13;;;5.60;;
47153;SDS011;32907;41.412;2.164;2023-02-15T18:28:00;8.75;;;5.57;;
47153;SDS011;32907;41.412;2.164;2023-02-15T18:30:28;8.77;;;6.20;;
47153;SDS011;32907;41.412;2.164;2023-02-15T18:32:57;7.07;;;5.32;;
47153;SDS011;32907;41.412;2.164;2023-02-15T18:35:30;8.00;;;6.05;;
47153;SDS011;32907;41.412;2.164;2023-02-15T18:38:00;9.75;;;7.70;;